Palmerton, Pennsylvania
Current Conditions -  °F | °C
As of 11:51 PM on Tuesday 25 Nov 2014 (Local Time) from KABE Reporting Station
Clear Clear  
Wind Chill:   Ceiling: Unl
Heat Index:   Visibility: 10mi
Dew Point: -1°   Wind: 3mph
Humidity: 79%   Direction: 280°W
Pressure: 30.18"   Gusts: NA
Location:  40.8°N, 75.62°W
Report Text: KABE 260451Z 28003KT 10SM CLR 02/M01 A3018 RMK AO2 SLP222 T00221011 401670022
Loading
Personal Weather Stations






























Interactive Weather Map New forecast layout! Learn more

10-Day Weather Forecast

Advertisements
Track Severe Weather on mobile